Time;durP1;ratioP1;P1;durP2;ratioP2;P2;SDS_P1;SDS_P2;PMS_P1;PMS_P2;Temp;Humidity;BMP_temperature;BMP_pressure;BME280_temperature;BME280_humidity;BME280_pressure;Samples;Min_cycle;Max_cycle;Signal;HPM_P1;HPM_P2
2021/03/06 00:01:34;;;;;;;;;;;;;;;-0.14;100.00;99274.66;1632275;88;20235;-69
2021/03/06 00:04:06;;;;;;;;;;;;;;;-0.13;100.00;99268.23;1632886;87;20548;-69
2021/03/06 00:06:38;;;;;;;;;;;;;;;-0.15;100.00;99268.59;1633301;86;20176;-70
2021/03/06 00:09:07;;;;;;;;;;;;;;;-0.14;100.00;99265.17;1610198;88;20682;-70
2021/03/06 00:11:38;;;;;;;;;;;;;;;-0.13;100.00;99266.94;1611591;88;22289;-69
2021/03/06 00:14:08;;;;;;;;;;;;;;;-0.10;100.00;99263.16;1621372;87;20246;-66
2021/03/06 00:16:38;;;;;;;;;;;;;;;-0.12;100.00;99245.78;1633389;87;20670;-67
2021/03/06 00:19:08;;;;;;;;;;;;;;;-0.15;100.00;99247.85;1627798;87;20318;-67
2021/03/06 00:21:41;;;;;;;;;;;;;;;-0.20;100.00;99233.83;1610012;88;20388;-67
2021/03/06 00:24:11;;;;;;;;;;;;;;;-0.22;100.00;99233.30;1609982;89;21300;-67
2021/03/06 00:26:41;;;;;;;;;;;;;;;-0.27;100.00;99237.02;1624979;88;20222;-69
2021/03/06 00:29:11;;;;;;;;;;;;;;;-0.26;100.00;99249.56;1634544;88;20506;-69
2021/03/06 00:31:40;;;;;;;;;;;;;;;-0.22;100.00;99251.45;1634767;88;20663;-68
2021/03/06 00:34:14;;;;;;;;;;;;;;;-0.18;100.00;99261.99;1617106;88;20262;-66
2021/03/06 00:36:43;;;;;;;;;;;;;;;-0.16;100.00;99269.41;1616949;86;22205;-67
2021/03/06 00:39:14;;;;;;;;;;;;;;;-0.12;100.00;99267.83;1633774;86;20298;-66
2021/03/06 00:41:46;;;;;;;;;;;;;;;-0.10;100.00;99280.02;1636119;87;20549;-67
2021/03/06 00:44:27;;;;;;;;;;;;;;;-0.08;100.00;99278.78;1617918;88;20258;-66
2021/03/06 00:46:56;;;;;;;;;;;;;;;-0.09;100.00;99282.20;1622513;87;20259;-69
2021/03/06 00:49:29;;;;;;;;;;;;;;;-0.06;100.00;99287.09;1613604;86;21393;-69
2021/03/06 00:52:06;;;;;;;;;;;;;;;-0.05;100.00;99278.48;1633055;88;20500;-69
2021/03/06 00:54:37;;;;;;;;;;;;;;;-0.02;100.00;99276.00;1622521;86;20237;-67
2021/03/06 00:57:10;;;;;;;;;;;;;;;-0.01;100.00;99278.19;1612115;87;20715;-67
2021/03/06 00:59:41;;;;;;;;;;;;;;;0.03;100.00;99286.58;1637572;86;20159;-68
2021/03/06 01:02:11;;;;;;;;;;;;;;;0.01;100.00;99285.64;1644671;86;22299;-69
2021/03/06 01:04:43;;;;;;;;;;;;;;;0.04;100.00;99294.83;1624153;87;20268;-69
2021/03/06 01:07:13;;;;;;;;;;;;;;;0.07;100.00;99303.14;1658771;84;20657;-69
2021/03/06 01:09:42;;;;;;;;;;;;;;;0.10;100.00;99309.73;1605917;87;20676;-69
2021/03/06 01:12:12;;;;;;;;;;;;;;;0.10;100.00;99310.62;1642764;85;20267;-69
2021/03/06 01:14:41;;;;;;;;;;;;;;;0.10;100.00;99308.44;1638395;87;21458;-69
2021/03/06 01:17:11;;;;;;;;;;;;;;;0.09;100.00;99309.27;1649448;86;20163;-70
2021/03/06 01:19:42;;;;;;;;;;;;;;;0.08;100.00;99313.58;1648349;86;20229;-67
2021/03/06 01:22:16;;;;;;;;;;;;;;;0.05;100.00;99317.34;1665055;85;20645;-67
2021/03/06 01:24:46;;;;;;;;;;;;;;;0.05;100.00;99322.95;1619373;88;20148;-69
2021/03/06 01:27:17;;;;;;;;;;;;;;;-0.01;100.00;99312.78;1640033;86;21285;-67
2021/03/06 01:29:50;;;;;;;;;;;;;;;0.01;100.00;99317.17;1666393;85;20219;-67
2021/03/06 01:32:20;;;;;;;;;;;;;;;0.00;100.00;99312.40;1665760;85;20205;-70
2021/03/06 01:34:50;;;;;;;;;;;;;;;0.00;100.00;99322.77;1601006;87;20725;-69
2021/03/06 01:37:22;;;;;;;;;;;;;;;-0.04;100.00;99324.75;1620016;87;20228;-69
2021/03/06 01:39:56;;;;;;;;;;;;;;;-0.09;100.00;99328.45;1619256;88;21353;-70
2021/03/06 01:42:24;;;;;;;;;;;;;;;-0.12;100.00;99323.56;1619712;87;20299;-70
2021/03/06 01:44:55;;;;;;;;;;;;;;;-0.15;100.00;99315.67;1619351;88;20265;-69
2021/03/06 01:47:30;;;;;;;;;;;;;;;-0.18;100.00;99315.14;1618366;88;20641;-70
2021/03/06 01:50:03;;;;;;;;;;;;;;;-0.22;100.00;99318.85;1638879;87;20254;-70
2021/03/06 01:52:34;;;;;;;;;;;;;;;-0.22;100.00;99315.84;1648469;85;22176;-70
2021/03/06 01:55:06;;;;;;;;;;;;;;;-0.22;100.00;99313.25;1640827;86;20487;-70
2021/03/06 01:57:38;;;;;;;;;;;;;;;-0.23;100.00;99314.08;1639927;86;20147;-68
2021/03/06 02:00:15;;;;;;;;;;;;;;;-0.24;100.00;99312.31;1647808;86;21015;-71
2021/03/06 02:02:48;;;;;;;;;;;;;;;-0.24;100.00;99328.28;1636210;85;20228;-69
2021/03/06 02:05:18;;;;;;;;;;;;;;;-0.27;100.00;99346.30;1667102;85;21456;-69
2021/03/06 02:07:50;;;;;;;;;;;;;;;-0.29;100.00;99351.84;1645668;85;20736;-70
2021/03/06 02:10:26;;;;;;;;;;;;;;;-0.28;100.00;99363.56;1637797;87;20362;-68
2021/03/06 02:13:35;;;;;;;;;;;;;;;-0.27;100.00;99365.33;1637380;87;20220;-68
2021/03/06 02:16:24;;;;;;;;;;;;;;;-0.25;100.00;99374.47;1637534;87;20251;-68
2021/03/06 02:19:19;;;;;;;;;;;;;;;-0.27;100.00;99380.00;1637631;87;22220;-70
2021/03/06 02:22:14;;;;;;;;;;;;;;;-0.26;100.00;99385.25;1637670;87;20133;-68
2021/03/06 02:25:09;;;;;;;;;;;;;;;-0.25;100.00;99386.13;1622120;87;20265;-70
2021/03/06 02:27:42;;;;;;;;;;;;;;;-0.28;100.00;99383.00;1637869;87;20223;-71
2021/03/06 02:30:15;;;;;;;;;;;;;;;-0.37;100.00;99378.75;1637503;87;20253;-69
2021/03/06 02:32:48;;;;;;;;;;;;;;;-0.43;100.00;99380.68;1637881;87;22333;-70
2021/03/06 02:35:23;;;;;;;;;;;;;;;-0.49;100.00;99375.21;1637994;87;20427;-70
2021/03/06 02:37:57;;;;;;;;;;;;;;;-0.52;100.00;99378.97;1637770;87;20516;-70
2021/03/06 02:40:27;;;;;;;;;;;;;;;-0.54;100.00;99383.63;1637596;87;20227;-71
2021/03/06 02:42:57;;;;;;;;;;;;;;;-0.61;100.00;99383.78;1637783;87;20488;-70
2021/03/06 02:45:27;;;;;;;;;;;;;;;-0.69;100.00;99378.28;1637799;87;21402;-69
2021/03/06 02:47:57;;;;;;;;;;;;;;;-0.68;100.00;99374.87;1621409;87;20170;-70
2021/03/06 02:50:28;;;;;;;;;;;;;;;-0.71;100.00;99372.16;1636488;87;20147;-70
2021/03/06 02:52:59;;;;;;;;;;;;;;;-0.72;100.00;99374.27;1637760;87;20235;-70
2021/03/06 02:55:31;;;;;;;;;;;;;;;-0.72;100.00;99383.74;1638476;87;20231;-70
2021/03/06 02:58:14;;;;;;;;;;;;;;;-0.75;100.00;99390.09;1637650;87;21349;-70
2021/03/06 03:01:06;;;;;;;;;;;;;;;-0.78;100.00;99402.91;1637711;87;20557;-70
2021/03/06 03:03:44;;;;;;;;;;;;;;;-0.78;100.00;99405.50;1620371;88;20248;-70
2021/03/06 03:06:39;;;;;;;;;;;;;;;-0.82;100.00;99408.38;1619407;88;20498;-70
2021/03/06 03:09:16;;;;;;;;;;;;;;;-0.84;100.00;99412.60;1637430;87;20501;-70
2021/03/06 03:11:51;;;;;;;;;;;;;;;-0.89;100.00;99413.23;1620633;87;21498;-70
2021/03/06 03:14:42;;;;;;;;;;;;;;;-0.93;100.00;99423.86;1620682;87;20236;-70
2021/03/06 03:17:23;;;;;;;;;;;;;;;-0.93;100.00;99419.98;1599692;88;20147;-70
2021/03/06 03:20:06;;;;;;;;;;;;;;;-0.91;100.00;99426.52;1620381;87;20252;-70
2021/03/06 03:22:37;;;;;;;;;;;;;;;-0.93;100.00;99421.68;1620476;87;20331;-70
2021/03/06 03:25:09;;;;;;;;;;;;;;;-0.91;100.00;99432.58;1620741;87;22162;-71
2021/03/06 03:27:39;;;;;;;;;;;;;;;-0.91;100.00;99440.35;1619130;88;20497;-71
2021/03/06 03:30:14;;;;;;;;;;;;;;;-0.90;100.00;99441.23;1637376;87;20225;-69
2021/03/06 03:32:44;;;;;;;;;;;;;;;-0.87;100.00;99450.02;1620456;87;20181;-70
2021/03/06 03:35:15;;;;;;;;;;;;;;;-0.87;100.00;99456.50;1620778;87;20251;-70
2021/03/06 03:37:47;;;;;;;;;;;;;;;-0.83;100.00;99463.58;1620399;87;21287;-70
2021/03/06 03:40:17;;;;;;;;;;;;;;;-0.82;100.00;99467.05;1620410;88;20241;-70
2021/03/06 03:42:47;;;;;;;;;;;;;;;-0.85;100.00;99460.04;1620682;87;20526;-69
2021/03/06 03:45:20;;;;;;;;;;;;;;;-0.87;100.00;99460.37;1620650;87;20264;-69
2021/03/06 03:47:51;;;;;;;;;;;;;;;-0.90;100.00;99465.84;1618533;88;20236;-70
2021/03/06 03:50:21;;;;;;;;;;;;;;;-0.96;100.00;99466.42;1620531;88;21405;-71
2021/03/06 03:52:51;;;;;;;;;;;;;;;-1.00;100.00;99479.64;1620200;88;20537;-71
2021/03/06 03:55:23;;;;;;;;;;;;;;;-1.05;100.00;99477.66;1636412;87;20142;-70
2021/03/06 03:57:59;;;;;;;;;;;;;;;-1.11;100.00;99474.39;1602897;87;20234;-71
2021/03/06 04:00:26;;;;;;;;;;;;;;;-1.15;100.00;99478.07;1635826;87;20238;-70
2021/03/06 04:03:02;;;;;;;;;;;;;;;-1.24;100.00;99481.53;1620691;87;22164;-70
2021/03/06 04:05:35;;;;;;;;;;;;;;;-1.33;100.00;99480.71;1619844;88;20519;-70
2021/03/06 04:08:05;;;;;;;;;;;;;;;-1.39;100.00;99478.73;1642892;85;20143;-70
2021/03/06 04:10:34;;;;;;;;;;;;;;;-1.39;100.00;99478.73;1647155;86;20496;-69
2021/03/06 04:13:08;;;;;;;;;;;;;;;-1.40;100.00;99476.07;1624999;87;20171;-69
2021/03/06 04:15:41;;;;;;;;;;;;;;;-1.46;100.00;99479.23;1620698;87;21396;-70
2021/03/06 04:18:08;;;;;;;;;;;;;;;-1.52;100.00;99476.36;1641960;85;20670;-70
2021/03/06 04:20:40;;;;;;;;;;;;;;;-1.56;100.00;99486.08;1595143;88;20509;-70
2021/03/06 04:23:14;;;;;;;;;;;;;;;-1.57;100.00;99491.19;1613809;87;20569;-70
2021/03/06 04:25:40;;;;;;;;;;;;;;;-1.59;100.00;99494.99;1620033;87;20241;-70
2021/03/06 04:28:12;;;;;;;;;;;;;;;-1.64;100.00;99491.30;1669414;85;21394;-70
2021/03/06 04:30:43;;;;;;;;;;;;;;;-1.68;100.00;99497.15;1669316;85;20653;-70
2021/03/06 04:33:12;;;;;;;;;;;;;;;-1.72;100.00;99492.23;1649601;85;20240;-69
2021/03/06 04:35:41;;;;;;;;;;;;;;;-1.77;100.00;99494.12;1613420;88;20224;-70
2021/03/06 04:38:10;;;;;;;;;;;;;;;-1.80;100.00;99500.04;1605975;87;20560;-70
2021/03/06 04:40:40;;;;;;;;;;;;;;;-1.86;100.00;99502.33;1620785;87;22186;-70
2021/03/06 04:43:09;;;;;;;;;;;;;;;-1.88;100.00;99508.23;1618455;88;20505;-69
2021/03/06 04:45:38;;;;;;;;;;;;;;;-1.92;100.00;99502.88;1620922;87;20235;-69
2021/03/06 04:48:08;;;;;;;;;;;;;;;-1.93;100.00;99516.62;1620627;87;20251;-69
2021/03/06 04:50:39;;;;;;;;;;;;;;;-1.92;100.00;99516.22;1648498;86;20255;-68
2021/03/06 04:53:08;;;;;;;;;;;;;;;-1.88;100.00;99525.05;1620253;87;20506;-68
2021/03/06 04:55:38;;;;;;;;;;;;;;;-1.90;100.00;99530.99;1619394;87;20557;-68
2021/03/06 04:58:06;;;;;;;;;;;;;;;-1.87;100.00;99529.41;1612218;88;20249;-68
2021/03/06 05:00:36;;;;;;;;;;;;;;;-1.83;100.00;99530.92;1618592;87;20254;-69
2021/03/06 05:03:05;;;;;;;;;;;;;;;-1.80;100.00;99533.66;1620106;87;20363;-67
2021/03/06 05:05:35;;;;;;;;;;;;;;;-1.77;100.00;99532.51;1641912;86;21461;-67
2021/03/06 05:08:05;;;;;;;;;;;;;;;-1.74;100.00;99539.53;1639774;86;20165;-68
2021/03/06 05:10:34;;;;;;;;;;;;;;;-1.73;100.00;99549.95;1635984;87;20311;-67
2021/03/06 05:13:03;;;;;;;;;;;;;;;-1.73;100.00;99540.01;1622680;87;20266;-67
2021/03/06 05:15:32;;;;;;;;;;;;;;;-1.74;100.00;99552.05;1612138;87;20151;-66
2021/03/06 05:18:01;;;;;;;;;;;;;;;-1.78;100.00;99550.53;1636057;87;21223;-65
2021/03/06 05:20:31;;;;;;;;;;;;;;;-1.85;100.00;99551.94;1635769;87;20227;-67
2021/03/06 05:23:00;;;;;;;;;;;;;;;-1.97;100.00;99554.77;1633811;87;20176;-66
2021/03/06 05:25:31;;;;;;;;;;;;;;;-2.02;100.00;99561.82;1633766;87;20202;-65
2021/03/06 05:28:00;;;;;;;;;;;;;;;-2.08;100.00;99566.28;1635949;87;20244;-68
2021/03/06 05:30:29;;;;;;;;;;;;;;;-2.12;100.00;99572.51;1635947;87;21454;-65
2021/03/06 05:32:58;;;;;;;;;;;;;;;-2.17;100.00;99591.66;1634156;87;20164;-65
2021/03/06 05:35:27;;;;;;;;;;;;;;;-2.18;100.00;99598.93;1636142;87;20502;-65
2021/03/06 05:37:56;;;;;;;;;;;;;;;-2.15;100.00;99604.26;1635899;87;20276;-66
2021/03/06 05:40:24;;;;;;;;;;;;;;;-2.11;100.00;99604.89;1635944;87;20534;-65
2021/03/06 05:42:53;;;;;;;;;;;;;;;-2.07;100.00;99616.27;1635952;87;21470;-65
2021/03/06 05:45:23;;;;;;;;;;;;;;;-2.09;100.00;99621.37;1634984;87;20252;-65
2021/03/06 05:47:52;;;;;;;;;;;;;;;-2.06;100.00;99627.10;1636107;87;20260;-65
2021/03/06 05:50:22;;;;;;;;;;;;;;;-2.06;100.00;99627.10;1635637;87;20157;-65
2021/03/06 05:52:51;;;;;;;;;;;;;;;-2.03;100.00;99629.84;1635744;87;20283;-66
2021/03/06 05:55:20;;;;;;;;;;;;;;;-2.02;100.00;99640.66;1633959;87;21360;-64
2021/03/06 05:57:52;;;;;;;;;;;;;;;-2.08;100.00;99646.81;1635946;87;20251;-64
2021/03/06 06:00:21;;;;;;;;;;;;;;;-2.16;100.00;99655.87;1635963;87;20276;-65
2021/03/06 06:02:56;;;;;;;;;;;;;;;-2.20;100.00;99659.98;1636249;87;20518;-65
2021/03/06 06:05:25;;;;;;;;;;;;;;;-2.20;100.00;99661.69;1634310;87;20183;-64
2021/03/06 06:07:55;;;;;;;;;;;;;;;-2.19;100.00;99672.51;1631852;86;22219;-65
2021/03/06 06:10:25;;;;;;;;;;;;;;;-2.19;100.00;99670.81;1608663;89;20546;-65
2021/03/06 06:12:54;;;;;;;;;;;;;;;-2.20;100.00;99672.91;1608946;87;20254;-65
2021/03/06 06:15:24;;;;;;;;;;;;;;;-2.24;100.00;99683.49;1612595;87;20777;-65
2021/03/06 06:17:53;;;;;;;;;;;;;;;-2.29;100.00;99682.36;1636250;87;20243;-64
2021/03/06 06:20:22;;;;;;;;;;;;;;;-2.33;100.00;99686.88;1610221;89;21412;-64
2021/03/06 06:23:12;;;;;;;;;;;;;;;-2.38;100.00;99699.04;1631599;87;20525;-64
2021/03/06 06:25:45;;;;;;;;;;;;;;;-2.39;100.00;99699.84;1606125;87;20521;-65
2021/03/06 06:28:15;;;;;;;;;;;;;;;-2.40;100.00;99710.98;1636170;87;20731;-65
2021/03/06 06:31:04;;;;;;;;;;;;;;;-2.45;100.00;99713.33;1634165;87;20533;-66
2021/03/06 06:33:34;;;;;;;;;;;;;;;-2.44;100.00;99716.39;1636162;87;21218;-66
2021/03/06 06:36:04;;;;;;;;;;;;;;;-2.44;100.00;99724.55;1636360;87;20585;-65
2021/03/06 06:38:49;;;;;;;;;;;;;;;-2.43;100.00;99720.75;1636700;87;20267;-67
2021/03/06 06:41:22;;;;;;;;;;;;;;;-2.40;100.00;99722.61;1621626;87;21088;-64
2021/03/06 06:43:51;;;;;;;;;;;;;;;-2.38;100.00;99726.17;1634439;87;20260;-64
2021/03/06 06:46:29;;;;;;;;;;;;;;;-2.41;100.00;99729.88;1636126;87;21443;-66
2021/03/06 06:48:59;;;;;;;;;;;;;;;-2.41;100.00;99731.17;1635794;87;20264;-66
2021/03/06 06:51:27;;;;;;;;;;;;;;;-2.37;100.00;99731.82;1636234;87;20172;-65
2021/03/06 06:54:10;;;;;;;;;;;;;;;-2.34;100.00;99736.78;1634120;87;20269;-65
2021/03/06 06:56:38;;;;;;;;;;;;;;;-2.34;100.00;99742.36;1635692;87;20518;-66
2021/03/06 06:59:11;;;;;;;;;;;;;;;-2.31;100.00;99741.23;1636179;87;21321;-65
2021/03/06 07:01:41;;;;;;;;;;;;;;;-2.26;100.00;99745.83;1636020;87;20268;-65
2021/03/06 07:04:12;;;;;;;;;;;;;;;-2.18;100.00;99746.65;1632261;87;20239;-66
2021/03/06 07:06:43;;;;;;;;;;;;;;;-2.13;100.00;99752.95;1635769;87;20922;-66
2021/03/06 07:09:14;;;;;;;;;;;;;;;-2.05;100.00;99749.08;1592617;88;20216;-66
2021/03/06 07:11:43;;;;;;;;;;;;;;;-1.97;100.00;99748.67;1625503;87;21367;-72
2021/03/06 07:14:13;;;;;;;;;;;;;;;-1.90;100.00;99754.64;1623098;87;20472;-66
2021/03/06 07:16:59;;;;;;;;;;;;;;;-1.85;100.00;99753.62;1619409;87;20557;-68
2021/03/06 07:19:35;;;;;;;;;;;;;;;-1.81;100.00;99760.73;1627590;87;20294;-67
2021/03/06 07:22:03;;;;;;;;;;;;;;;-1.73;100.00;99762.02;1629225;87;20267;-68
2021/03/06 07:24:33;;;;;;;;;;;;;;;-1.66;100.00;99770.58;1640716;86;21239;-67
2021/03/06 07:27:04;;;;;;;;;;;;;;;-1.58;100.00;99773.56;1629647;87;20203;-67
2021/03/06 07:29:33;;;;;;;;;;;;;;;-1.47;100.00;99780.58;1627103;87;20268;-66
2021/03/06 07:32:03;;;;;;;;;;;;;;;-1.35;100.00;99779.94;1627643;87;20227;-67
2021/03/06 07:34:33;;;;;;;;;;;;;;;-1.20;100.00;99785.00;1625210;87;20244;-67
2021/03/06 07:37:06;;;;;;;;;;;;;;;-1.07;100.00;99787.39;1603089;87;22316;-66
2021/03/06 07:39:41;;;;;;;;;;;;;;;-1.00;100.00;99794.24;1581156;90;20273;-66
2021/03/06 07:42:30;;;;;;;;;;;;;;;-0.91;100.00;99795.55;1605013;88;20508;-66
2021/03/06 07:44:59;;;;;;;;;;;;;;;-0.73;100.00;99793.44;1621407;88;20526;-66
2021/03/06 07:47:30;;;;;;;;;;;;;;;-0.57;100.00;99800.66;1620068;88;20235;-65
2021/03/06 07:49:59;;;;;;;;;;;;;;;-0.50;100.00;99798.43;1612228;88;22298;-65
2021/03/06 07:52:28;;;;;;;;;;;;;;;-0.42;100.00;99800.12;1599877;87;20271;-66
2021/03/06 07:54:59;;;;;;;;;;;;;;;-0.35;100.00;99812.15;1621442;88;20257;-66
2021/03/06 07:57:28;;;;;;;;;;;;;;;-0.30;100.00;99809.77;1622191;87;20868;-68
2021/03/06 07:59:57;;;;;;;;;;;;;;;-0.24;100.00;99815.66;1597838;88;20232;-67
2021/03/06 08:02:39;;;;;;;;;;;;;;;-0.15;100.00;99816.08;1622570;88;21397;-67
2021/03/06 08:05:45;;;;;;;;;;;;;;;-0.04;100.00;99813.17;1599727;88;20493;-68
2021/03/06 08:08:36;;;;;;;;;;;;;;;0.05;100.00;99815.33;1605947;88;20198;-68
2021/03/06 08:11:16;;;;;;;;;;;;;;;0.16;100.00;99818.41;1620515;88;20222;-72
2021/03/06 08:13:59;;;;;;;;;;;;;;;0.31;100.00;99821.29;1620502;88;20180;-68
2021/03/06 08:16:32;;;;;;;;;;;;;;;0.28;100.00;99822.86;1620636;88;21401;-68
2021/03/06 08:19:04;;;;;;;;;;;;;;;0.27;100.00;99819.78;1619685;88;20152;-69
2021/03/06 08:21:36;;;;;;;;;;;;;;;0.24;100.00;99823.13;1623301;88;20499;-68
2021/03/06 08:24:23;;;;;;;;;;;;;;;0.32;100.00;99822.18;1620151;87;20227;-67
2021/03/06 08:27:05;;;;;;;;;;;;;;;0.34;100.00;99825.73;1614353;87;20239;-67
2021/03/06 08:29:48;;;;;;;;;;;;;;;0.32;98.96;99827.37;1607704;88;21181;-69
2021/03/06 08:32:35;;;;;;;;;;;;;;;0.34;98.46;99821.84;1610427;88;20225;-69
2021/03/06 08:35:20;;;;;;;;;;;;;;;0.36;97.80;99821.91;1611714;88;20236;-69
2021/03/06 08:37:50;;;;;;;;;;;;;;;0.47;97.12;99827.16;1614473;88;20232;-69
2021/03/06 08:40:22;;;;;;;;;;;;;;;0.59;97.38;99829.03;1612890;88;20185;-71
2021/03/06 08:42:54;;;;;;;;;;;;;;;0.73;97.05;99829.23;1610642;88;22306;-70
2021/03/06 08:45:27;;;;;;;;;;;;;;;0.75;95.84;99829.30;1611286;88;20169;-70
2021/03/06 08:48:03;;;;;;;;;;;;;;;0.77;95.34;99831.55;1610109;88;20208;-71
2021/03/06 08:50:35;;;;;;;;;;;;;;;0.79;95.07;99832.09;1612193;88;20173;-71
2021/03/06 08:53:06;;;;;;;;;;;;;;;0.93;95.76;99841.77;1612810;87;20331;-71
2021/03/06 08:55:40;;;;;;;;;;;;;;;1.15;95.64;99843.19;1623074;87;21443;-71
2021/03/06 08:58:09;;;;;;;;;;;;;;;1.29;94.69;99849.37;1623097;88;20144;-69
2021/03/06 09:00:40;;;;;;;;;;;;;;;1.38;94.15;99845.44;1623111;88;20216;-70
2021/03/06 09:03:17;;;;;;;;;;;;;;;1.58;94.25;99845.88;1637485;87;20230;-69
2021/03/06 09:05:49;;;;;;;;;;;;;;;1.78;93.87;99838.86;1627882;87;20585;-70
2021/03/06 09:08:21;;;;;;;;;;;;;;;1.84;90.93;99836.50;1630800;87;21335;-69
2021/03/06 09:10:52;;;;;;;;;;;;;;;1.64;86.77;99851.73;1655028;85;20241;-70
2021/03/06 09:13:23;;;;;;;;;;;;;;;1.45;85.81;99847.91;1612945;87;20183;-71
2021/03/06 09:15:53;;;;;;;;;;;;;;;1.52;86.81;99853.84;1635541;87;20225;-70
2021/03/06 09:18:24;;;;;;;;;;;;;;;1.57;85.44;99860.11;1638141;87;20231;-71
2021/03/06 09:21:11;;;;;;;;;;;;;;;1.52;84.31;99857.33;1638498;87;21405;-70
2021/03/06 09:23:41;;;;;;;;;;;;;;;1.55;84.19;99857.86;1644592;86;20217;-71
2021/03/06 09:26:17;;;;;;;;;;;;;;;1.70;84.88;99866.70;1612172;87;20235;-70
2021/03/06 09:28:47;;;;;;;;;;;;;;;1.91;85.57;99867.99;1650252;86;20255;-71
2021/03/06 09:31:31;;;;;;;;;;;;;;;2.17;85.87;99864.28;1646137;86;20501;-70
2021/03/06 09:33:58;;;;;;;;;;;;;;;2.32;84.53;99867.88;1620122;87;21233;-70
2021/03/06 09:36:28;;;;;;;;;;;;;;;2.44;83.87;99861.86;1637996;87;20257;-72
2021/03/06 09:39:01;;;;;;;;;;;;;;;2.46;81.55;99868.02;1622650;87;20243;-69
2021/03/06 09:41:33;;;;;;;;;;;;;;;2.40;79.85;99873.41;1647109;86;20222;-70
2021/03/06 09:44:03;;;;;;;;;;;;;;;2.46;79.04;99869.31;1641335;87;20218;-70
2021/03/06 09:46:34;;;;;;;;;;;;;;;2.52;77.35;99869.54;1654313;86;21389;-71
2021/03/06 09:49:11;;;;;;;;;;;;;;;2.51;76.41;99874.69;1657262;85;20252;-69
2021/03/06 09:51:51;;;;;;;;;;;;;;;2.59;75.91;99880.19;1636990;87;20481;-69
2021/03/06 09:54:24;;;;;;;;;;;;;;;2.61;74.42;99882.43;1637740;86;20265;-70
2021/03/06 09:56:57;;;;;;;;;;;;;;;2.63;72.59;99873.84;1637113;87;20247;-70
2021/03/06 09:59:26;;;;;;;;;;;;;;;2.58;70.50;99878.41;1637824;87;22156;-72
2021/03/06 10:01:57;;;;;;;;;;;;;;;2.51;69.86;99879.48;1634462;87;20208;-70
2021/03/06 10:04:26;;;;;;;;;;;;;;;2.55;69.65;99880.48;1621096;87;20237;-70
2021/03/06 10:06:56;;;;;;;;;;;;;;;2.57;68.89;99887.05;1636966;87;20226;-69
2021/03/06 10:09:25;;;;;;;;;;;;;;;2.63;69.28;99885.98;1653839;85;20520;-70
2021/03/06 10:11:56;;;;;;;;;;;;;;;2.76;69.70;99890.80;1632156;87;21397;-71
2021/03/06 10:14:26;;;;;;;;;;;;;;;2.93;70.16;99891.45;1623429;86;20246;-70
2021/03/06 10:16:57;;;;;;;;;;;;;;;2.96;67.28;99888.53;1648371;85;20323;-71
2021/03/06 10:19:31;;;;;;;;;;;;;;;2.92;66.46;99897.49;1647913;87;20731;-70
2021/03/06 10:22:03;;;;;;;;;;;;;;;2.97;66.79;99887.70;1648019;86;20313;-71
2021/03/06 10:24:53;;;;;;;;;;;;;;;3.05;66.87;99891.89;1617194;87;22207;-70
2021/03/06 10:27:49;;;;;;;;;;;;;;;3.09;66.63;99892.05;1609932;87;20228;-71
2021/03/06 10:30:29;;;;;;;;;;;;;;;3.19;66.94;99897.16;1625118;87;20147;-70
2021/03/06 10:33:02;;;;;;;;;;;;;;;3.32;66.97;99894.59;1639382;86;20226;-65
2021/03/06 10:35:40;;;;;;;;;;;;;;;3.33;66.41;99889.85;1604368;87;20623;-69
2021/03/06 10:38:29;;;;;;;;;;;;;;;3.41;67.94;99894.91;1616578;87;21404;-70
2021/03/06 10:40:59;;;;;;;;;;;;;;;3.60;68.03;99888.59;1609078;88;20515;-69
2021/03/06 10:43:32;;;;;;;;;;;;;;;3.68;66.99;99893.22;1655271;85;20176;-69
2021/03/06 10:46:21;;;;;;;;;;;;;;;3.84;67.66;99889.42;1644809;86;20922;-71
2021/03/06 10:48:57;;;;;;;;;;;;;;;4.00;67.90;99890.38;1616154;87;20220;-70
2021/03/06 10:51:49;;;;;;;;;;;;;;;4.15;66.91;99889.08;1631494;87;21461;-66
2021/03/06 10:54:18;;;;;;;;;;;;;;;4.24;66.02;99890.67;1596199;87;20283;-68
2021/03/06 10:56:48;;;;;;;;;;;;;;;4.29;66.12;99883.48;1616680;87;20512;-67
2021/03/06 10:59:20;;;;;;;;;;;;;;;4.40;66.13;99879.88;1641887;86;21130;-68
2021/03/06 11:01:54;;;;;;;;;;;;;;;4.47;65.59;99887.06;1641251;86;20230;-70
2021/03/06 11:04:33;;;;;;;;;;;;;;;4.59;64.82;99880.00;1651579;85;21243;-70
2021/03/06 11:07:08;;;;;;;;;;;;;;;4.70;64.19;99883.39;1621510;87;20287;-70
2021/03/06 11:09:41;;;;;;;;;;;;;;;4.73;63.02;99884.81;1613122;87;20232;-70
2021/03/06 11:12:21;;;;;;;;;;;;;;;4.83;61.79;99881.16;1593793;87;20792;-70
2021/03/06 11:15:10;;;;;;;;;;;;;;;4.78;60.44;99884.06;1588342;89;20518;-68
2021/03/06 11:17:40;;;;;;;;;;;;;;;4.71;59.40;99886.47;1606889;87;21475;-69
2021/03/06 11:20:11;;;;;;;;;;;;;;;4.67;58.37;99882.41;1611703;87;20335;-70
2021/03/06 11:22:41;;;;;;;;;;;;;;;4.59;56.65;99891.34;1640111;87;20239;-68
2021/03/06 11:25:11;;;;;;;;;;;;;;;4.52;57.36;99890.70;1639071;86;20314;-68
2021/03/06 11:27:55;;;;;;;;;;;;;;;4.53;56.58;99889.85;1620424;87;20295;-69
2021/03/06 11:30:36;;;;;;;;;;;;;;;4.53;55.50;99893.77;1625798;87;22369;-69
2021/03/06 11:33:08;;;;;;;;;;;;;;;4.46;54.78;99890.94;1627504;87;20220;-68
2021/03/06 11:35:37;;;;;;;;;;;;;;;4.39;54.14;99882.91;1653558;85;20246;-70
2021/03/06 11:38:07;;;;;;;;;;;;;;;4.45;54.08;99883.94;1644401;85;20242;-69
2021/03/06 11:40:39;;;;;;;;;;;;;;;4.52;53.45;99889.81;1607961;88;20246;-70
2021/03/06 11:43:08;;;;;;;;;;;;;;;4.52;52.80;99889.39;1613714;87;21399;-71
2021/03/06 11:45:37;;;;;;;;;;;;;;;4.55;52.74;99883.37;1615117;87;20516;-69
2021/03/06 11:48:08;;;;;;;;;;;;;;;4.61;51.90;99875.28;1598411;87;20164;-61
2021/03/06 11:50:38;;;;;;;;;;;;;;;4.59;50.99;99873.05;1604457;87;21003;-69
2021/03/06 11:53:07;;;;;;;;;;;;;;;4.56;50.58;99873.38;1638707;86;20257;-69
2021/03/06 11:55:36;;;;;;;;;;;;;;;4.58;50.88;99864.75;1612250;87;21236;-68
2021/03/06 11:58:04;;;;;;;;;;;;;;;4.61;50.63;99868.75;1639360;86;20317;-69
2021/03/06 12:00:35;;;;;;;;;;;;;;;4.74;50.97;99863.48;1602121;87;20602;-68
2021/03/06 12:03:08;;;;;;;;;;;;;;;4.79;49.51;99872.34;1611471;87;20157;-68
2021/03/06 12:05:38;;;;;;;;;;;;;;;4.67;48.61;99874.58;1626383;87;20243;-69
2021/03/06 12:08:07;;;;;;;;;;;;;;;4.67;49.68;99874.58;1623746;87;22122;-61
2021/03/06 12:10:36;;;;;;;;;;;;;;;4.73;48.88;99873.48;1629047;87;20212;-69
2021/03/06 12:13:05;;;;;;;;;;;;;;;4.56;48.07;99869.46;1629931;87;20230;-70
2021/03/06 12:15:34;;;;;;;;;;;;;;;4.40;47.68;99869.44;1611620;87;20278;-72
2021/03/06 12:18:04;;;;;;;;;;;;;;;4.47;49.17;99870.08;1622124;87;20505;-72
2021/03/06 12:20:33;;;;;;;;;;;;;;;4.68;49.88;99870.70;1636471;87;21287;-72
2021/03/06 12:23:02;;;;;;;;;;;;;;;4.92;50.16;99878.37;1613587;87;20659;-72
2021/03/06 12:25:31;;;;;;;;;;;;;;;5.18;50.12;99884.74;1628834;86;20342;-69
2021/03/06 12:28:00;;;;;;;;;;;;;;;5.40;50.30;99879.69;1627949;87;20207;-69
2021/03/06 12:30:30;;;;;;;;;;;;;;;5.65;51.25;99880.77;1627927;87;20287;-69
2021/03/06 12:33:01;;;;;;;;;;;;;;;5.93;51.69;99872.80;1624983;87;21254;-68
2021/03/06 12:35:33;;;;;;;;;;;;;;;6.21;52.07;99880.91;1628294;87;20187;-70
2021/03/06 12:38:01;;;;;;;;;;;;;;;6.43;51.63;99886.20;1625682;87;20576;-64
2021/03/06 12:40:30;;;;;;;;;;;;;;;6.58;51.31;99886.96;1623181;87;21021;-67
2021/03/06 12:42:59;;;;;;;;;;;;;;;6.69;51.13;99884.17;1630793;87;20243;-67
2021/03/06 12:45:29;;;;;;;;;;;;;;;6.80;50.65;99890.95;1651220;85;22128;-67
2021/03/06 12:47:59;;;;;;;;;;;;;;;6.78;48.87;99885.67;1652519;85;20217;-71
2021/03/06 12:50:28;;;;;;;;;;;;;;;6.81;49.95;99890.98;1618125;88;20236;-66
2021/03/06 12:52:57;;;;;;;;;;;;;;;6.90;49.69;99886.34;1615185;87;20769;-65
2021/03/06 12:55:27;;;;;;;;;;;;;;;6.90;49.20;99887.66;1636467;87;36337;-68
2021/03/06 12:57:58;;;;;;;;;;;;;;;6.84;48.66;99900.22;1639939;87;21395;-68
2021/03/06 13:00:27;;;;;;;;;;;;;;;6.81;48.49;99897.54;1647734;86;20323;-68
2021/03/06 13:02:57;;;;;;;;;;;;;;;6.77;47.71;99893.08;1645347;87;20293;-68
2021/03/06 13:05:28;;;;;;;;;;;;;;;6.79;47.07;99886.13;1642183;87;20269;-70
2021/03/06 13:07:57;;;;;;;;;;;;;;;6.81;46.79;99884.85;1643995;87;20492;-68
2021/03/06 13:10:26;;;;;;;;;;;;;;;6.82;46.65;99885.31;1636707;87;22131;-68
2021/03/06 13:12:55;;;;;;;;;;;;;;;6.84;46.29;99892.35;1637123;87;20190;-68
2021/03/06 13:15:27;;;;;;;;;;;;;;;6.87;45.54;99883.23;1666439;85;20569;-68